Time;durP1;ratioP1;P1;durP2;ratioP2;P2;SDS_P1;SDS_P2;PMS_P1;PMS_P2;Temp;Humidity;BMP_temperature;BMP_pressure;BME280_temperature;BME280_humidity;BME280_pressure;Samples;Min_cycle;Max_cycle;Signal;HPM_P1;HPM_P2
2021/05/21 00:01:22;;;;;;;0.32;0.32;;;;;;;;;;5051734;28;20060;-81
2021/05/21 00:03:48;;;;;;;0.85;0.40;;;;;;;;;;5052192;28;20071;-81
2021/05/21 00:06:14;;;;;;;1.15;1.02;;;;;;;;;;5052015;28;20474;-81
2021/05/21 00:08:40;;;;;;;0.73;0.50;;;;;;;;;;5052099;28;20025;-82
2021/05/21 00:11:09;;;;;;;0.75;0.30;;;;;;;;;;5034378;28;20033;-81
2021/05/21 00:13:38;;;;;;;1.15;0.50;;;;;;;;;;5051600;28;20509;-81
2021/05/21 00:16:05;;;;;;;0.82;0.50;;;;;;;;;;5051832;28;20032;-81
2021/05/21 00:18:32;;;;;;;0.35;0.35;;;;;;;;;;5051766;28;20036;-81
2021/05/21 00:20:58;;;;;;;1.02;0.75;;;;;;;;;;5051878;28;20090;-81
2021/05/21 00:23:24;;;;;;;0.35;0.30;;;;;;;;;;5033932;28;20023;-81
2021/05/21 00:25:52;;;;;;;0.30;0.30;;;;;;;;;;5051030;28;20055;-81
2021/05/21 00:28:21;;;;;;;0.65;0.38;;;;;;;;;;5034078;28;20035;-82
2021/05/21 00:30:47;;;;;;;0.40;0.40;;;;;;;;;;5051269;28;20108;-82
2021/05/21 00:33:13;;;;;;;0.68;0.30;;;;;;;;;;5050852;28;20743;-81
2021/05/21 00:35:41;;;;;;;0.38;0.30;;;;;;;;;;5051605;28;20056;-81
2021/05/21 00:38:09;;;;;;;0.40;0.40;;;;;;;;;;5032857;28;20480;-81
2021/05/21 00:40:36;;;;;;;0.35;0.35;;;;;;;;;;5051342;28;20041;-81
2021/05/21 00:43:04;;;;;;;0.52;0.45;;;;;;;;;;5050983;28;20106;-81
2021/05/21 00:45:31;;;;;;;0.30;0.30;;;;;;;;;;5051609;28;20475;-81
2021/05/21 00:47:57;;;;;;;0.45;0.30;;;;;;;;;;5051390;28;20025;-81
2021/05/21 00:50:24;;;;;;;0.65;0.50;;;;;;;;;;5050859;28;20087;-81
2021/05/21 00:52:51;;;;;;;1.05;0.22;;;;;;;;;;5050736;28;20555;-81
2021/05/21 00:55:20;;;;;;;0.80;0.32;;;;;;;;;;5051280;28;20021;-81
2021/05/21 00:57:47;;;;;;;0.32;0.30;;;;;;;;;;5033161;28;20530;-81
2021/05/21 01:00:19;;;;;;;0.40;0.40;;;;;;;;;;5050648;28;20033;-81
2021/05/21 01:02:45;;;;;;;1.17;0.80;;;;;;;;;;5051001;28;20509;-81
2021/05/21 01:05:11;;;;;;;0.90;0.90;;;;;;;;;;5050799;28;20033;-81
2021/05/21 01:07:37;;;;;;;0.70;0.50;;;;;;;;;;5051417;28;20079;-82
2021/05/21 01:10:05;;;;;;;0.80;0.40;;;;;;;;;;5033338;28;20029;-81
2021/05/21 01:12:33;;;;;;;0.43;0.43;;;;;;;;;;5033411;28;20037;-81
2021/05/21 01:15:00;;;;;;;0.57;0.57;;;;;;;;;;5050921;28;20071;-81
2021/05/21 01:17:26;;;;;;;0.68;0.50;;;;;;;;;;5033006;28;20558;-81
2021/05/21 01:19:53;;;;;;;0.30;0.30;;;;;;;;;;5051164;28;20041;-81
2021/05/21 01:22:20;;;;;;;0.93;0.60;;;;;;;;;;5032861;28;20033;-81
2021/05/21 01:24:46;;;;;;;0.35;0.35;;;;;;;;;;5051092;28;20071;-81
2021/05/21 01:27:16;;;;;;;0.40;0.40;;;;;;;;;;5050493;28;20479;-81
2021/05/21 01:29:42;;;;;;;0.45;0.45;;;;;;;;;;5050302;28;20463;-81
2021/05/21 01:32:10;;;;;;;0.40;0.40;;;;;;;;;;5032705;28;20040;-81
2021/05/21 01:34:38;;;;;;;0.20;0.20;;;;;;;;;;5033043;28;20542;-81
2021/05/21 01:37:05;;;;;;;0.40;0.40;;;;;;;;;;5050480;28;20052;-81
2021/05/21 01:39:35;;;;;;;0.50;0.40;;;;;;;;;;5050716;28;20120;-81
2021/05/21 01:42:05;;;;;;;1.77;0.50;;;;;;;;;;5042010;28;20029;-82
2021/05/21 01:44:34;;;;;;;0.40;0.40;;;;;;;;;;5032992;28;20033;-81
2021/05/21 01:47:01;;;;;;;0.30;0.30;;;;;;;;;;5050502;28;20028;-82
2021/05/21 01:49:29;;;;;;;0.40;0.40;;;;;;;;;;5052108;28;20033;-81
2021/05/21 01:52:05;;;;;;;0.85;0.82;;;;;;;;;;5053810;28;20073;-81
2021/05/21 01:54:35;;;;;;;0.40;0.40;;;;;;;;;;5054581;28;20025;-82
2021/05/21 01:57:02;;;;;;;0.43;0.40;;;;;;;;;;5037091;28;20029;-81
2021/05/21 01:59:28;;;;;;;0.40;0.40;;;;;;;;;;5054394;28;20041;-82
2021/05/21 02:01:54;;;;;;;0.85;0.60;;;;;;;;;;5036486;28;20116;-82
2021/05/21 02:04:30;;;;;;;0.63;0.43;;;;;;;;;;5054135;28;20035;-81
2021/05/21 02:07:04;;;;;;;0.45;0.45;;;;;;;;;;5037544;28;20497;-81
2021/05/21 02:09:33;;;;;;;1.30;0.30;;;;;;;;;;5036613;28;20036;-81
2021/05/21 02:12:04;;;;;;;0.50;0.50;;;;;;;;;;5053865;28;20048;-81
2021/05/21 02:14:30;;;;;;;0.30;0.30;;;;;;;;;;5054368;28;20029;-81
2021/05/21 02:16:57;;;;;;;0.85;0.43;;;;;;;;;;5053368;28;20513;-81
2021/05/21 02:19:25;;;;;;;0.60;0.22;;;;;;;;;;5054152;28;20399;-81
2021/05/21 02:21:52;;;;;;;0.40;0.40;;;;;;;;;;5054172;28;20096;-82
2021/05/21 02:24:19;;;;;;;0.65;0.47;;;;;;;;;;5053901;28;20025;-81
2021/05/21 02:26:45;;;;;;;0.40;0.30;;;;;;;;;;5053552;28;20068;-81
2021/05/21 02:29:14;;;;;;;0.38;0.38;;;;;;;;;;5053082;28;20073;-81
2021/05/21 02:31:40;;;;;;;1.65;0.30;;;;;;;;;;5036724;28;20108;-81
2021/05/21 02:34:06;;;;;;;0.40;0.40;;;;;;;;;;5053384;28;20040;-81
2021/05/21 02:36:32;;;;;;;0.60;0.40;;;;;;;;;;5053943;28;20036;-81
2021/05/21 02:39:00;;;;;;;0.35;0.35;;;;;;;;;;5053476;28;20103;-81
2021/05/21 02:41:27;;;;;;;0.35;0.30;;;;;;;;;;5053811;28;20025;-81
2021/05/21 02:43:53;;;;;;;0.32;0.28;;;;;;;;;;5036008;28;20061;-81
2021/05/21 02:46:20;;;;;;;0.68;0.68;;;;;;;;;;5036012;28;20522;-81
2021/05/21 02:48:47;;;;;;;2.05;0.38;;;;;;;;;;5053599;28;20027;-81
2021/05/21 02:51:13;;;;;;;0.30;0.30;;;;;;;;;;5034697;28;20061;-81
2021/05/21 02:53:42;;;;;;;0.52;0.40;;;;;;;;;;5035610;28;20503;-81
2021/05/21 02:56:10;;;;;;;0.47;0.47;;;;;;;;;;5053178;28;20045;-81
2021/05/21 02:58:39;;;;;;;1.17;0.50;;;;;;;;;;5052954;28;20052;-81
2021/05/21 03:01:06;;;;;;;0.30;0.30;;;;;;;;;;5052295;28;20037;-81
2021/05/21 03:03:33;;;;;;;0.75;0.75;;;;;;;;;;5053328;28;20045;-81
2021/05/21 03:05:59;;;;;;;0.65;0.50;;;;;;;;;;5053086;28;20029;-81
2021/05/21 03:08:27;;;;;;;0.68;0.40;;;;;;;;;;5053493;28;20108;-81
2021/05/21 03:10:53;;;;;;;0.40;0.40;;;;;;;;;;5053558;28;20033;-81
2021/05/21 03:13:19;;;;;;;1.95;0.30;;;;;;;;;;5052540;28;20380;-81
2021/05/21 03:15:51;;;;;;;0.60;0.57;;;;;;;;;;5053351;28;20024;-81
2021/05/21 03:18:24;;;;;;;1.95;0.90;;;;;;;;;;5052930;28;20028;-81
2021/05/21 03:20:52;;;;;;;0.93;0.55;;;;;;;;;;5053272;28;20032;-82
2021/05/21 03:23:18;;;;;;;0.22;0.20;;;;;;;;;;5034983;28;20099;-81
2021/05/21 03:25:44;;;;;;;0.40;0.40;;;;;;;;;;5053283;28;20150;-81
2021/05/21 03:28:17;;;;;;;0.40;0.40;;;;;;;;;;5034861;28;20056;-81
2021/05/21 03:30:43;;;;;;;0.95;0.47;;;;;;;;;;5052390;28;20041;-81
2021/05/21 03:33:09;;;;;;;0.55;0.45;;;;;;;;;;5052241;28;20080;-82
2021/05/21 03:35:36;;;;;;;0.73;0.40;;;;;;;;;;5052920;28;20680;-81
2021/05/21 03:38:06;;;;;;;1.33;1.23;;;;;;;;;;5052434;28;20025;-81
2021/05/21 03:40:33;;;;;;;0.30;0.30;;;;;;;;;;5052544;28;20041;-81
2021/05/21 03:43:01;;;;;;;0.65;0.65;;;;;;;;;;5052180;28;20054;-81
2021/05/21 03:45:27;;;;;;;0.30;0.30;;;;;;;;;;5052725;28;20052;-82
2021/05/21 03:47:53;;;;;;;0.47;0.47;;;;;;;;;;5053015;28;20408;-81
2021/05/21 03:50:21;;;;;;;0.30;0.30;;;;;;;;;;5034476;28;20029;-81
2021/05/21 03:52:48;;;;;;;1.38;1.10;;;;;;;;;;5051826;28;20048;-81
2021/05/21 03:55:15;;;;;;;0.75;0.35;;;;;;;;;;5034598;28;20064;-81
2021/05/21 03:57:44;;;;;;;0.40;0.40;;;;;;;;;;5052396;28;20040;-81
2021/05/21 04:00:24;;;;;;;0.52;0.52;;;;;;;;;;5051606;28;20029;-81
2021/05/21 04:02:51;;;;;;;1.05;0.40;;;;;;;;;;5051857;28;20029;-81
2021/05/21 04:05:21;;;;;;;0.52;0.50;;;;;;;;;;5052140;28;20025;-81
2021/05/21 04:07:48;;;;;;;0.47;0.47;;;;;;;;;;5052269;28;20034;-81
2021/05/21 04:10:16;;;;;;;0.50;0.50;;;;;;;;;;5052047;28;20216;-81
2021/05/21 04:12:43;;;;;;;0.40;0.40;;;;;;;;;;5051101;28;20033;-81
2021/05/21 04:15:12;;;;;;;1.65;0.73;;;;;;;;;;5051712;28;20109;-81
2021/05/21 04:17:39;;;;;;;0.55;0.40;;;;;;;;;;5052207;28;20052;-82
2021/05/21 04:20:05;;;;;;;0.47;0.38;;;;;;;;;;5051945;28;20032;-81
2021/05/21 04:22:33;;;;;;;0.90;0.47;;;;;;;;;;5060191;28;20060;-81
2021/05/21 04:25:00;;;;;;;0.65;0.38;;;;;;;;;;5069373;28;20033;-81
2021/05/21 04:27:28;;;;;;;0.80;0.30;;;;;;;;;;5071415;28;20486;-81
2021/05/21 04:29:55;;;;;;;1.08;0.50;;;;;;;;;;5053305;28;20112;-81
2021/05/21 04:32:21;;;;;;;0.45;0.30;;;;;;;;;;5071508;28;20063;-81
2021/05/21 04:34:49;;;;;;;0.30;0.30;;;;;;;;;;5071883;28;20116;-82
2021/05/21 04:37:18;;;;;;;1.08;0.60;;;;;;;;;;5071206;28;20032;-81
2021/05/21 04:39:44;;;;;;;0.30;0.30;;;;;;;;;;5054030;28;20036;-81
2021/05/21 04:42:11;;;;;;;0.60;0.47;;;;;;;;;;5071133;28;20036;-81
2021/05/21 04:44:37;;;;;;;0.20;0.20;;;;;;;;;;5071635;28;20025;-81
2021/05/21 04:47:03;;;;;;;0.40;0.40;;;;;;;;;;5062735;28;20028;-81
2021/05/21 04:49:35;;;;;;;0.30;0.30;;;;;;;;;;5053665;28;20028;-81
2021/05/21 04:52:01;;;;;;;0.60;0.60;;;;;;;;;;5057097;28;20057;-81
2021/05/21 04:54:27;;;;;;;0.57;0.55;;;;;;;;;;5051301;28;20029;-82
2021/05/21 04:56:55;;;;;;;0.30;0.30;;;;;;;;;;5051219;28;20102;-81
2021/05/21 04:59:21;;;;;;;0.50;0.50;;;;;;;;;;5050614;28;20033;-82
2021/05/21 05:01:49;;;;;;;0.30;0.30;;;;;;;;;;5033662;28;20120;-81
2021/05/21 05:04:15;;;;;;;0.63;0.40;;;;;;;;;;5050852;28;20029;-81
2021/05/21 05:06:42;;;;;;;1.08;0.82;;;;;;;;;;5050950;28;20037;-81
2021/05/21 05:09:10;;;;;;;0.32;0.32;;;;;;;;;;5050363;28;20025;-81
2021/05/21 05:11:39;;;;;;;0.60;0.35;;;;;;;;;;5051433;28;20031;-81
2021/05/21 05:14:05;;;;;;;0.40;0.40;;;;;;;;;;5050733;28;20558;-81
2021/05/21 05:16:33;;;;;;;0.20;0.20;;;;;;;;;;5050767;28;20032;-81
2021/05/21 05:19:02;;;;;;;0.30;0.30;;;;;;;;;;5033254;28;20045;-81
2021/05/21 05:21:28;;;;;;;0.52;0.52;;;;;;;;;;5050859;28;20028;-81
2021/05/21 05:23:57;;;;;;;0.55;0.40;;;;;;;;;;5050510;28;20559;-81
2021/05/21 05:26:24;;;;;;;0.98;0.52;;;;;;;;;;5050754;28;20449;-81
2021/05/21 05:28:55;;;;;;;0.55;0.52;;;;;;;;;;5031301;28;20451;-81
2021/05/21 05:31:24;;;;;;;0.32;0.32;;;;;;;;;;5030642;28;20094;-81
2021/05/21 05:33:53;;;;;;;0.93;0.25;;;;;;;;;;5030831;28;20041;-81
2021/05/21 05:36:19;;;;;;;0.30;0.30;;;;;;;;;;5030623;28;20484;-81
2021/05/21 05:38:46;;;;;;;1.65;0.40;;;;;;;;;;5030689;28;20472;-81
2021/05/21 05:41:12;;;;;;;0.40;0.40;;;;;;;;;;5013040;28;20030;-81
2021/05/21 05:43:38;;;;;;;0.30;0.30;;;;;;;;;;5030719;28;20029;-81
2021/05/21 05:46:10;;;;;;;0.20;0.20;;;;;;;;;;5030725;28;20112;-81
2021/05/21 05:48:37;;;;;;;0.30;0.30;;;;;;;;;;5029502;28;20041;-81
2021/05/21 05:51:05;;;;;;;0.75;0.52;;;;;;;;;;5012491;28;20033;-81
2021/05/21 05:53:35;;;;;;;0.77;0.50;;;;;;;;;;5030638;28;20033;-81
2021/05/21 05:56:05;;;;;;;2.47;0.90;;;;;;;;;;5016234;28;20049;-81
2021/05/21 05:58:33;;;;;;;2.80;0.95;;;;;;;;;;5018743;28;20022;-81
2021/05/21 06:00:59;;;;;;;1.35;1.25;;;;;;;;;;5026821;28;20443;-80
2021/05/21 06:03:29;;;;;;;0.50;0.50;;;;;;;;;;5024585;28;20040;-81
2021/05/21 06:05:57;;;;;;;1.98;0.70;;;;;;;;;;5028601;28;20040;-82
2021/05/21 06:08:24;;;;;;;2.50;1.10;;;;;;;;;;5011685;28;20033;-82
2021/05/21 06:10:52;;;;;;;0.73;0.68;;;;;;;;;;5046030;28;20095;-82
2021/05/21 06:13:22;;;;;;;2.30;0.90;;;;;;;;;;5011709;28;20748;-83
2021/05/21 06:15:49;;;;;;;4.35;0.82;;;;;;;;;;5029110;28;20037;-82
2021/05/21 06:18:15;;;;;;;1.95;0.70;;;;;;;;;;5027942;28;20033;-84
2021/05/21 06:20:41;;;;;;;1.50;0.75;;;;;;;;;;5010317;28;20057;-83
2021/05/21 06:23:08;;;;;;;3.13;1.00;;;;;;;;;;5027580;28;20033;-83
2021/05/21 06:28:10;;;;;;;3.40;1.65;;;;;;;;;;5027526;28;20034;-82
2021/05/21 06:30:39;;;;;;;5.80;2.03;;;;;;;;;;5055769;28;20472;-80
2021/05/21 06:33:05;;;;;;;6.75;2.95;;;;;;;;;;5049916;28;20060;-80
2021/05/21 06:35:34;;;;;;;2.25;1.30;;;;;;;;;;5013876;28;20033;-81
2021/05/21 06:38:00;;;;;;;3.50;2.95;;;;;;;;;;5051661;28;20029;-81
2021/05/21 06:40:26;;;;;;;5.50;2.42;;;;;;;;;;5048424;28;20159;-83
2021/05/21 06:42:56;;;;;;;2.42;1.92;;;;;;;;;;5053446;28;20021;-83
2021/05/21 06:45:22;;;;;;;3.45;1.63;;;;;;;;;;5050810;28;20039;-82
2021/05/21 06:47:50;;;;;;;3.00;1.70;;;;;;;;;;5029599;28;20526;-82
2021/05/21 06:50:16;;;;;;;2.88;1.95;;;;;;;;;;5014128;28;20523;-82
2021/05/21 06:52:44;;;;;;;3.63;1.50;;;;;;;;;;5052108;28;20056;-83
2021/05/21 06:55:12;;;;;;;3.42;2.03;;;;;;;;;;5050693;28;20108;-83
2021/05/21 06:57:39;;;;;;;2.65;1.77;;;;;;;;;;5051862;28;20466;-82
2021/05/21 07:00:07;;;;;;;1.83;1.23;;;;;;;;;;5051066;28;20087;-81
2021/05/21 07:02:33;;;;;;;3.70;1.45;;;;;;;;;;5051865;28;20032;-86
2021/05/21 07:05:00;;;;;;;1.75;1.63;;;;;;;;;;5061554;28;20547;-84
2021/05/21 07:07:27;;;;;;;1.33;1.20;;;;;;;;;;5034006;28;20460;-84
2021/05/21 07:09:54;;;;;;;3.40;1.30;;;;;;;;;;5053146;28;20031;-84
2021/05/21 07:12:20;;;;;;;2.85;1.27;;;;;;;;;;5056840;28;20028;-90
2021/05/21 07:14:46;;;;;;;3.33;1.23;;;;;;;;;;5048671;28;20097;-83
2021/05/21 07:17:18;;;;;;;1.52;1.35;;;;;;;;;;5050905;28;20029;-84
2021/05/21 07:19:46;;;;;;;1.77;1.63;;;;;;;;;;5051311;28;20041;-82
2021/05/21 07:22:15;;;;;;;3.58;1.00;;;;;;;;;;5069495;28;20028;-83
2021/05/21 07:24:41;;;;;;;1.77;1.10;;;;;;;;;;5050675;28;20072;-82
2021/05/21 07:27:09;;;;;;;1.98;1.15;;;;;;;;;;5048235;28;20032;-83
2021/05/21 07:29:35;;;;;;;13.18;1.92;;;;;;;;;;5050590;28;20549;-82
2021/05/21 07:32:01;;;;;;;3.55;2.00;;;;;;;;;;5032831;28;20036;-78
2021/05/21 07:34:27;;;;;;;3.10;1.63;;;;;;;;;;5049385;28;20033;-79
2021/05/21 07:36:53;;;;;;;2.85;1.38;;;;;;;;;;5046533;28;20045;-79
2021/05/21 07:39:20;;;;;;;1.85;1.63;;;;;;;;;;5039326;28;20071;-79
2021/05/21 07:41:54;;;;;;;3.17;1.70;;;;;;;;;;5016695;28;20036;-79
2021/05/21 07:44:22;;;;;;;3.72;1.10;;;;;;;;;;5042308;28;20030;-78
2021/05/21 07:46:54;;;;;;;1.67;0.95;;;;;;;;;;5043234;28;20394;-79
2021/05/21 07:49:24;;;;;;;2.30;1.27;;;;;;;;;;5050153;28;20498;-81
2021/05/21 07:51:53;;;;;;;1.58;1.33;;;;;;;;;;5049693;28;20076;-80
2021/05/21 07:54:20;;;;;;;2.35;1.13;;;;;;;;;;5050147;28;20034;-80
2021/05/21 07:56:46;;;;;;;0.88;0.80;;;;;;;;;;5046800;28;20025;-80
2021/05/21 07:59:15;;;;;;;2.50;1.40;;;;;;;;;;5034834;28;20029;-79
2021/05/21 08:01:43;;;;;;;23.42;1.98;;;;;;;;;;5036023;28;20079;-79
2021/05/21 08:04:09;;;;;;;5.15;1.80;;;;;;;;;;5038461;28;20115;-79
2021/05/21 08:06:35;;;;;;;2.40;1.17;;;;;;;;;;5047779;28;20029;-79
2021/05/21 08:09:09;;;;;;;1.90;1.08;;;;;;;;;;5049253;28;20029;-78
2021/05/21 08:11:37;;;;;;;2.42;0.85;;;;;;;;;;5048563;28;20025;-79
2021/05/21 08:14:03;;;;;;;1.48;0.98;;;;;;;;;;5031781;28;20029;-78
2021/05/21 08:16:29;;;;;;;1.90;0.82;;;;;;;;;;5049580;28;20021;-79
2021/05/21 08:18:59;;;;;;;5.60;1.30;;;;;;;;;;5032284;28;20033;-80
2021/05/21 08:21:25;;;;;;;3.35;1.10;;;;;;;;;;5050061;28;20040;-79
2021/05/21 08:23:52;;;;;;;2.97;0.90;;;;;;;;;;5050082;28;20124;-79
2021/05/21 08:26:18;;;;;;;1.50;1.35;;;;;;;;;;5031194;28;20037;-79
2021/05/21 08:28:44;;;;;;;3.75;2.05;;;;;;;;;;5050112;28;20024;-79
2021/05/21 08:31:11;;;;;;;1.50;1.08;;;;;;;;;;5031990;28;20056;-79
2021/05/21 08:33:44;;;;;;;1.35;0.93;;;;;;;;;;5032481;28;20444;-79
2021/05/21 08:36:13;;;;;;;4.80;1.38;;;;;;;;;;5049433;28;20053;-79
2021/05/21 08:38:44;;;;;;;1.30;0.80;;;;;;;;;;5047648;28;20082;-79
2021/05/21 08:41:17;;;;;;;2.15;0.90;;;;;;;;;;5049275;28;20028;-79
2021/05/21 08:43:48;;;;;;;4.18;0.93;;;;;;;;;;5050286;28;20036;-79
2021/05/21 08:46:14;;;;;;;2.95;1.52;;;;;;;;;;5049608;28;20545;-79
2021/05/21 08:48:40;;;;;;;1.80;1.10;;;;;;;;;;5031636;28;20029;-79
2021/05/21 08:51:09;;;;;;;2.38;1.17;;;;;;;;;;5044422;28;20060;-80
2021/05/21 08:53:38;;;;;;;0.80;0.80;;;;;;;;;;5039174;28;20019;-81
2021/05/21 08:56:05;;;;;;;3.65;1.25;;;;;;;;;;5030852;28;20033;-82
2021/05/21 08:58:32;;;;;;;3.10;1.25;;;;;;;;;;5049239;28;20029;-82
2021/05/21 09:00:59;;;;;;;3.22;1.17;;;;;;;;;;5045999;28;20383;-83
2021/05/21 09:03:26;;;;;;;1.50;0.80;;;;;;;;;;5049110;28;20111;-82
2021/05/21 09:06:16;;;;;;;4.10;1.23;;;;;;;;;;5048154;28;20017;-82
2021/05/21 09:08:44;;;;;;;3.88;0.77;;;;;;;;;;5046632;28;20024;-81
2021/05/21 09:11:43;;;;;;;5.47;1.55;;;;;;;;;;5048625;28;20534;-82
2021/05/21 09:14:18;;;;;;;4.60;1.02;;;;;;;;;;5014051;28;20028;-83
2021/05/21 09:16:46;;;;;;;0.93;0.93;;;;;;;;;;5046835;28;20047;-82
2021/05/21 09:19:20;;;;;;;4.07;1.02;;;;;;;;;;5048431;28;20020;-82
2021/05/21 09:21:52;;;;;;;1.42;1.33;;;;;;;;;;5047520;28;20021;-83
2021/05/21 09:24:39;;;;;;;1.63;1.00;;;;;;;;;;5045502;28;20029;-83
2021/05/21 09:27:07;;;;;;;2.95;0.98;;;;;;;;;;5046072;28;20116;-83
2021/05/21 09:29:34;;;;;;;3.25;0.82;;;;;;;;;;5047081;28;20044;-81
2021/05/21 09:32:00;;;;;;;0.55;0.55;;;;;;;;;;5040379;28;20142;-82
2021/05/21 09:34:33;;;;;;;1.23;0.82;;;;;;;;;;5036832;28;20047;-82
2021/05/21 09:37:00;;;;;;;0.95;0.82;;;;;;;;;;5027580;28;20029;-81
2021/05/21 09:39:27;;;;;;;0.60;0.60;;;;;;;;;;5044336;28;20040;-82
2021/05/21 09:41:54;;;;;;;0.77;0.70;;;;;;;;;;5037840;28;20032;-82
2021/05/21 09:44:21;;;;;;;2.67;1.02;;;;;;;;;;5044934;28;20025;-82
2021/05/21 09:46:51;;;;;;;0.93;0.93;;;;;;;;;;5067189;28;20097;-82
2021/05/21 09:49:27;;;;;;;9.63;1.48;;;;;;;;;;5042576;28;20140;-82
2021/05/21 09:51:56;;;;;;;3.53;1.10;;;;;;;;;;5048969;28;20487;-82
2021/05/21 09:54:24;;;;;;;2.65;1.67;;;;;;;;;;5049219;28;20561;-83
2021/05/21 09:57:05;;;;;;;1.48;1.10;;;;;;;;;;5048006;28;20021;-84
2021/05/21 09:59:45;;;;;;;2.85;1.30;;;;;;;;;;5030495;28;20069;-83
2021/05/21 10:02:18;;;;;;;4.03;1.25;;;;;;;;;;5014739;28;20099;-84
2021/05/21 10:04:45;;;;;;;1.73;0.98;;;;;;;;;;5029524;28;20040;-83
2021/05/21 10:07:11;;;;;;;2.00;1.20;;;;;;;;;;5014037;28;20033;-83
2021/05/21 10:09:40;;;;;;;3.78;1.13;;;;;;;;;;5049416;28;20029;-83
2021/05/21 10:12:11;;;;;;;3.92;1.38;;;;;;;;;;5051736;28;20543;-84
2021/05/21 10:14:37;;;;;;;3.05;1.15;;;;;;;;;;5052891;28;20080;-82
2021/05/21 10:17:04;;;;;;;3.22;1.08;;;;;;;;;;5051907;28;20029;-82
2021/05/21 10:19:31;;;;;;;7.25;1.73;;;;;;;;;;5053231;28;20044;-84
2021/05/21 10:22:02;;;;;;;3.92;1.38;;;;;;;;;;5049913;28;20023;-81
2021/05/21 10:24:35;;;;;;;3.45;1.30;;;;;;;;;;5036900;28;20064;-83
2021/05/21 10:27:05;;;;;;;1.70;1.50;;;;;;;;;;5032354;28;20131;-84
2021/05/21 10:29:33;;;;;;;3.65;1.63;;;;;;;;;;5051067;28;20033;-82
2021/05/21 10:32:18;;;;;;;3.90;2.00;;;;;;;;;;5033891;28;20500;-80
2021/05/21 10:34:48;;;;;;;5.15;1.63;;;;;;;;;;5033094;28;20030;-82
2021/05/21 10:37:25;;;;;;;5.57;1.73;;;;;;;;;;5014110;28;20051;-82
2021/05/21 10:40:02;;;;;;;3.10;1.60;;;;;;;;;;5048171;28;20034;-82
2021/05/21 10:42:29;;;;;;;2.83;1.63;;;;;;;;;;5033214;28;20056;-82
2021/05/21 10:45:06;;;;;;;1.50;1.40;;;;;;;;;;5032704;28;20025;-80
2021/05/21 10:47:39;;;;;;;4.00;1.10;;;;;;;;;;4996093;28;20042;-82
2021/05/21 10:50:16;;;;;;;1.45;1.08;;;;;;;;;;5012591;28;20160;-82
2021/05/21 10:52:52;;;;;;;1.05;1.05;;;;;;;;;;5013143;28;20040;-82
2021/05/21 10:55:19;;;;;;;1.27;0.90;;;;;;;;;;5012366;28;20037;-82
2021/05/21 10:57:59;;;;;;;4.47;0.90;;;;;;;;;;4995211;28;20034;-83
2021/05/21 11:00:29;;;;;;;2.17;1.13;;;;;;;;;;5012569;28;20038;-82
2021/05/21 11:02:56;;;;;;;2.22;1.38;;;;;;;;;;5015880;28;20392;-82
2021/05/21 11:05:31;;;;;;;1.10;0.98;;;;;;;;;;5032425;28;20029;-82
2021/05/21 11:08:00;;;;;;;1.48;0.85;;;;;;;;;;5032322;28;20490;-82
2021/05/21 11:10:28;;;;;;;1.52;0.93;;;;;;;;;;5032992;28;20017;-82
2021/05/21 11:13:00;;;;;;;0.80;0.65;;;;;;;;;;5031982;28;20050;-81
2021/05/21 11:15:36;;;;;;;1.60;0.70;;;;;;;;;;5015660;28;20029;-82
2021/05/21 11:18:14;;;;;;;1.05;0.88;;;;;;;;;;5031056;28;20038;-82
2021/05/21 11:20:59;;;;;;;2.70;1.15;;;;;;;;;;5014406;28;20428;-82
2021/05/21 11:23:30;;;;;;;1.83;0.70;;;;;;;;;;5030075;28;20069;-82
2021/05/21 11:26:17;;;;;;;2.35;1.60;;;;;;;;;;5031046;28;20038;-81
2021/05/21 11:28:47;;;;;;;0.68;0.45;;;;;;;;;;5031933;28;20097;-81
2021/05/21 11:31:34;;;;;;;2.72;1.40;;;;;;;;;;5013805;28;20701;-82
2021/05/21 11:34:01;;;;;;;0.77;0.73;;;;;;;;;;5032695;28;20033;-83
2021/05/21 11:36:30;;;;;;;6.88;1.05;;;;;;;;;;5044236;28;20026;-83
2021/05/21 11:38:56;;;;;;;1.48;1.05;;;;;;;;;;5030078;28;20021;-82
2021/05/21 11:41:36;;;;;;;2.50;0.73;;;;;;;;;;5022600;28;20022;-82
2021/05/21 11:44:04;;;;;;;1.13;0.60;;;;;;;;;;5030952;28;20502;-81
2021/05/21 11:46:30;;;;;;;2.38;0.70;;;;;;;;;;5014120;28;20022;-82
2021/05/21 11:48:59;;;;;;;1.15;0.57;;;;;;;;;;5032114;28;20108;-82
2021/05/21 11:51:26;;;;;;;2.17;1.00;;;;;;;;;;5029220;28;20021;-83
2021/05/21 11:54:01;;;;;;;1.38;0.60;;;;;;;;;;5030864;28;20041;-83
2021/05/21 11:56:32;;;;;;;2.10;0.90;;;;;;;;;;5030842;28;20037;-81
2021/05/21 11:59:05;;;;;;;0.82;0.32;;;;;;;;;;5010822;28;20034;-81
2021/05/21 12:01:31;;;;;;;;;;;;;;;;;;5011981;28;20500;-83
2021/05/21 12:03:58;;;;;;;1.67;0.90;;;;;;;;;;5026921;28;19963;-82
2021/05/21 12:06:29;;;;;;;0.95;0.85;;;;;;;;;;5030514;28;20132;-83
2021/05/21 12:08:55;;;;;;;0.90;0.88;;;;;;;;;;5013253;28;20053;-81
2021/05/21 12:11:21;;;;;;;0.90;0.50;;;;;;;;;;5030481;28;20526;-81
2021/05/21 12:13:47;;;;;;;1.63;1.05;;;;;;;;;;5030748;28;20030;-81
2021/05/21 12:16:17;;;;;;;1.08;0.57;;;;;;;;;;5010588;28;20059;-82
2021/05/21 12:18:43;;;;;;;2.60;0.57;;;;;;;;;;5031079;28;20057;-82
2021/05/21 12:21:09;;;;;;;2.20;0.57;;;;;;;;;;5010323;28;20029;-82
2021/05/21 12:23:39;;;;;;;2.63;0.60;;;;;;;;;;5011769;28;20029;-83
2021/05/21 12:26:06;;;;;;;0.60;0.60;;;;;;;;;;5029087;28;20021;-83
2021/05/21 12:28:33;;;;;;;1.38;0.60;;;;;;;;;;5029825;28;20530;-82
2021/05/21 12:31:04;;;;;;;1.38;1.00;;;;;;;;;;5035513;28;20416;-82
2021/05/21 12:33:32;;;;;;;4.80;0.88;;;;;;;;;;5030316;28;20029;-83
2021/05/21 12:36:17;;;;;;;2.08;1.13;;;;;;;;;;5030530;28;20028;-80
2021/05/21 12:38:53;;;;;;;1.35;0.80;;;;;;;;;;5066866;28;20044;-81
2021/05/21 12:41:23;;;;;;;5.87;1.57;;;;;;;;;;5070334;28;20055;-81
2021/05/21 12:43:49;;;;;;;2.47;0.60;;;;;;;;;;5052522;28;20092;-80
2021/05/21 12:46:17;;;;;;;4.05;1.58;;;;;;;;;;5049899;28;20040;-81
2021/05/21 12:48:47;;;;;;;1.27;0.70;;;;;;;;;;5033112;28;20025;-80
2021/05/21 12:51:18;;;;;;;5.85;0.77;;;;;;;;;;5050270;28;20536;-81
2021/05/21 12:53:45;;;;;;;0.82;0.70;;;;;;;;;;5050244;28;20044;-81
2021/05/21 12:56:48;;;;;;;2.42;1.25;;;;;;;;;;5048842;28;20037;-81
2021/05/21 12:59:14;;;;;;;5.47;0.93;;;;;;;;;;5047760;28;20041;-81
2021/05/21 13:01:41;;;;;;;3.17;0.85;;;;;;;;;;5044137;28;20029;-81
2021/05/21 13:04:21;;;;;;;3.45;1.20;;;;;;;;;;5030862;28;20028;-81
2021/05/21 13:06:49;;;;;;;2.25;1.08;;;;;;;;;;5049801;28;20491;-81
2021/05/21 13:09:15;;;;;;;1.15;0.80;;;;;;;;;;5046858;28;20028;-82
2021/05/21 13:11:48;;;;;;;0.80;0.80;;;;;;;;;;5032526;28;20465;-82
2021/05/21 13:14:15;;;;;;;1.30;0.70;;;;;;;;;;5049065;28;20629;-81
2021/05/21 13:16:42;;;;;;;1.55;0.90;;;;;;;;;;5049208;28;20060;-81
2021/05/21 13:19:10;;;;;;;0.88;0.68;;;;;;;;;;5047928;28;20048;-81
2021/05/21 13:21:38;;;;;;;1.38;0.90;;;;;;;;;;5049661;28;20037;-81
2021/05/21 13:24:08;;;;;;;1.75;1.05;;;;;;;;;;5042511;28;20029;-81
2021/05/21 13:26:44;;;;;;;1.17;0.63;;;;;;;;;;5030418;28;20029;-80
2021/05/21 13:29:10;;;;;;;1.27;1.15;;;;;;;;;;5028809;28;20092;-80
2021/05/21 13:31:38;;;;;;;4.97;1.38;;;;;;;;;;5029711;28;20057;-81
2021/05/21 13:34:05;;;;;;;2.70;0.90;;;;;;;;;;5039217;28;20033;-82
2021/05/21 13:36:31;;;;;;;4.25;1.27;;;;;;;;;;5051907;28;20029;-82
2021/05/21 13:39:00;;;;;;;1.75;1.00;;;;;;;;;;5028459;28;20025;-82
2021/05/21 13:41:29;;;;;;;0.95;0.50;;;;;;;;;;5030071;28;20030;-82
2021/05/21 13:43:56;;;;;;;3.15;0.75;;;;;;;;;;5032035;28;20025;-81
2021/05/21 13:46:22;;;;;;;2.05;0.95;;;;;;;;;;5059861;28;20028;-81
2021/05/21 13:48:49;;;;;;;3.60;0.88;;;;;;;;;;5038497;28;20163;-83
2021/05/21 13:51:15;;;;;;;1.63;0.77;;;;;;;;;;5066918;28;20841;-82
2021/05/21 13:53:41;;;;;;;1.08;0.68;;;;;;;;;;5056272;28;20029;-81
2021/05/21 13:56:07;;;;;;;2.83;1.10;;;;;;;;;;5034940;28;20391;-82
2021/05/21 13:58:33;;;;;;;1.77;1.02;;;;;;;;;;5036140;28;20384;-83
2021/05/21 14:01:00;;;;;;;0.65;0.60;;;;;;;;;;5051128;28;20037;-82
2021/05/21 14:03:26;;;;;;;2.92;0.70;;;;;;;;;;5041227;28;20111;-83
2021/05/21 14:05:52;;;;;;;2.42;0.98;;;;;;;;;;5053520;28;20403;-83
2021/05/21 14:08:18;;;;;;;2.70;0.90;;;;;;;;;;5038874;28;20069;-83
2021/05/21 14:10:45;;;;;;;3.80;1.73;;;;;;;;;;5037094;28;20041;-82
2021/05/21 14:13:11;;;;;;;1.75;1.25;;;;;;;;;;5014735;28;20025;-82
2021/05/21 14:15:37;;;;;;;1.10;0.88;;;;;;;;;;5034443;28;20032;-83
2021/05/21 14:18:06;;;;;;;2.10;1.15;;;;;;;;;;5040028;28;20029;-81
2021/05/21 14:20:36;;;;;;;3.40;0.68;;;;;;;;;;5029491;28;20108;-82
2021/05/21 14:23:03;;;;;;;29.23;1.75;;;;;;;;;;5011018;28;20036;-81
2021/05/21 14:25:33;;;;;;;0.95;0.70;;;;;;;;;;5032267;28;20018;-82
2021/05/21 14:28:00;;;;;;;1.70;0.80;;;;;;;;;;5036814;28;20099;-81
2021/05/21 14:30:27;;;;;;;1.05;0.70;;;;;;;;;;5046421;28;20125;-81
2021/05/21 14:32:58;;;;;;;2.33;0.90;;;;;;;;;;5033280;28;20034;-82
2021/05/21 14:35:26;;;;;;;4.95;1.00;;;;;;;;;;5012187;28;20133;-82
2021/05/21 14:37:53;;;;;;;1.52;0.90;;;;;;;;;;5013473;28;20037;-83
2021/05/21 14:40:19;;;;;;;3.53;1.33;;;;;;;;;;5027174;28;20037;-82
2021/05/21 14:42:46;;;;;;;10.77;2.25;;;;;;;;;;5026862;28;20044;-82
2021/05/21 14:45:14;;;;;;;19.48;4.65;;;;;;;;;;5031575;28;20088;-82
2021/05/21 14:47:42;;;;;;;17.77;4.93;;;;;;;;;;5031486;28;20033;-81
2021/05/21 14:50:10;;;;;;;8.07;2.92;;;;;;;;;;5031070;28;20108;-81
2021/05/21 14:52:38;;;;;;;8.20;2.40;;;;;;;;;;5031009;28;20045;-81
2021/05/21 14:55:09;;;;;;;6.20;2.60;;;;;;;;;;5026944;28;20468;-81